Time;durP1;ratioP1;P1;durP2;ratioP2;P2;SDS_P1;SDS_P2;PMS_P1;PMS_P2;Temp;Humidity;BMP_temperature;BMP_pressure;BME280_temperature;BME280_humidity;BME280_pressure;Samples;Min_cycle;Max_cycle;Signal;HPM_P1;HPM_P2
2022/05/26 13:11:55;;;;;;;5.00;1.33;;;;;;;;;;6717720;19;51428;-73
2022/05/26 13:14:34;;;;;;;6.05;1.30;;;;;;;;;;7355190;19;20010;-75
2022/05/26 13:17:04;;;;;;;7.85;1.60;;;;;;;;;;7372508;19;20027;-75
2022/05/26 13:19:30;;;;;;;7.80;1.65;;;;;;;;;;7369424;19;20392;-76
2022/05/26 13:21:55;;;;;;;6.25;1.73;;;;;;;;;;7384498;19;20039;-75
2022/05/26 13:24:23;;;;;;;6.75;1.55;;;;;;;;;;7354239;19;20003;-74
2022/05/26 13:27:09;;;;;;;8.85;1.45;;;;;;;;;;7360245;19;20063;-75
2022/05/26 13:29:35;;;;;;;6.57;1.40;;;;;;;;;;7363829;19;20501;-75
2022/05/26 13:34:49;;;;;;;5.28;1.73;;;;;;;;;;7382550;19;20054;-75
2022/05/26 13:37:25;;;;;;;8.68;1.73;;;;;;;;;;7372021;19;20035;-75
2022/05/26 13:40:28;;;;;;;4.60;1.10;;;;;;;;;;7376818;19;20018;-75
2022/05/26 13:42:54;;;;;;;6.10;1.63;;;;;;;;;;7350319;19;20098;-75
2022/05/26 13:45:22;;;;;;;8.02;1.50;;;;;;;;;;7373791;19;20014;-74
2022/05/26 13:47:47;;;;;;;6.93;1.60;;;;;;;;;;7371504;19;20056;-74
2022/05/26 13:50:13;;;;;;;10.77;1.75;;;;;;;;;;7380981;19;20014;-74
2022/05/26 13:52:38;;;;;;;7.27;1.37;;;;;;;;;;7381837;19;20087;-74
2022/05/26 13:55:06;;;;;;;8.98;1.63;;;;;;;;;;7379683;19;20006;-75
2022/05/26 13:57:38;;;;;;;8.20;1.50;;;;;;;;;;7383888;19;20025;-75
2022/05/26 14:00:05;;;;;;;9.80;1.73;;;;;;;;;;7369039;19;20791;-73
2022/05/26 14:02:35;;;;;;;6.47;1.10;;;;;;;;;;7372707;19;20478;-75
2022/05/26 14:05:04;;;;;;;4.63;1.50;;;;;;;;;;7378882;19;20018;-74
2022/05/26 14:07:34;;;;;;;5.93;1.40;;;;;;;;;;7381531;19;20373;-76
2022/05/26 14:10:19;;;;;;;5.93;1.50;;;;;;;;;;7361939;19;20250;-75
2022/05/26 14:13:05;;;;;;;7.28;1.42;;;;;;;;;;7383460;19;20017;-76
2022/05/26 14:15:39;;;;;;;6.70;1.58;;;;;;;;;;7371010;19;20030;-76
2022/05/26 14:18:07;;;;;;;5.35;1.25;;;;;;;;;;7374523;19;20334;-74
2022/05/26 14:20:32;;;;;;;8.52;1.58;;;;;;;;;;7380412;19;20039;-75
2022/05/26 14:22:57;;;;;;;5.22;1.40;;;;;;;;;;7377274;19;20006;-75
2022/05/26 14:25:23;;;;;;;7.10;1.70;;;;;;;;;;7358775;19;20108;-76
2022/05/26 14:27:51;;;;;;;7.90;1.58;;;;;;;;;;7376613;19;20011;-74
2022/05/26 14:30:27;;;;;;;5.57;1.23;;;;;;;;;;7369177;19;19999;-73
2022/05/26 14:32:52;;;;;;;10.38;1.60;;;;;;;;;;7375879;19;20010;-74
2022/05/26 14:35:18;;;;;;;11.03;1.50;;;;;;;;;;7362878;19;20014;-76
2022/05/26 14:37:44;;;;;;;9.65;1.60;;;;;;;;;;7369498;19;20347;-75
2022/05/26 14:40:10;;;;;;;5.00;1.23;;;;;;;;;;7373820;19;20018;-75
2022/05/26 14:42:38;;;;;;;7.43;1.52;;;;;;;;;;7374119;19;20356;-74
2022/05/26 14:45:05;;;;;;;5.72;1.25;;;;;;;;;;7376206;19;20575;-74
2022/05/26 14:47:30;;;;;;;6.22;1.65;;;;;;;;;;7378681;19;20037;-75
2022/05/26 14:49:55;;;;;;;7.88;1.60;;;;;;;;;;7368794;19;20537;-74
2022/05/26 14:52:23;;;;;;;7.25;1.30;;;;;;;;;;7369793;19;20018;-75
2022/05/26 14:57:32;;;;;;;;;;;;;;;;;;7371559;19;20319;-74
2022/05/26 14:59:57;;;;;;;5.70;1.47;;;;;;;;;;7372405;19;19922;-77
2022/05/26 15:02:23;;;;;;;6.60;1.60;;;;;;;;;;7371262;19;20006;-75
2022/05/26 15:04:48;;;;;;;6.50;1.40;;;;;;;;;;7382838;19;20018;-77
2022/05/26 15:07:14;;;;;;;6.38;1.55;;;;;;;;;;7363569;19;20002;-74
2022/05/26 15:09:39;;;;;;;9.43;2.10;;;;;;;;;;7364954;19;20017;-78
2022/05/26 15:12:05;;;;;;;8.82;1.45;;;;;;;;;;7355166;19;20056;-77
2022/05/26 15:14:31;;;;;;;9.15;1.40;;;;;;;;;;7360936;19;20006;-75
2022/05/26 15:16:58;;;;;;;5.75;1.40;;;;;;;;;;7359115;19;20006;-74
2022/05/26 15:19:27;;;;;;;4.65;1.27;;;;;;;;;;7365490;19;20454;-75
2022/05/26 15:21:58;;;;;;;5.43;1.30;;;;;;;;;;7369238;19;20019;-74
2022/05/26 15:24:24;;;;;;;8.32;1.63;;;;;;;;;;7375907;19;20027;-73
2022/05/26 15:26:49;;;;;;;7.30;1.38;;;;;;;;;;7376256;19;20011;-74
2022/05/26 15:29:15;;;;;;;7.32;1.65;;;;;;;;;;7375958;19;19998;-75
2022/05/26 15:31:41;;;;;;;6.80;1.20;;;;;;;;;;7371335;19;20495;-76
2022/05/26 15:34:07;;;;;;;5.40;1.33;;;;;;;;;;7372337;19;20017;-76
2022/05/26 15:36:32;;;;;;;8.82;1.70;;;;;;;;;;7370714;19;20011;-73
2022/05/26 15:38:58;;;;;;;7.60;1.77;;;;;;;;;;7375544;19;20017;-74
2022/05/26 15:41:24;;;;;;;7.05;1.50;;;;;;;;;;7380866;19;20014;-77
2022/05/26 15:43:49;;;;;;;6.57;1.65;;;;;;;;;;7383871;19;20018;-74
2022/05/26 15:46:17;;;;;;;7.00;1.48;;;;;;;;;;7379597;19;20017;-78
2022/05/26 15:48:43;;;;;;;8.50;1.75;;;;;;;;;;7378204;19;20017;-75
2022/05/26 15:51:09;;;;;;;5.53;1.63;;;;;;;;;;7379739;19;20002;-75
2022/05/26 15:53:34;;;;;;;5.80;1.30;;;;;;;;;;7369930;19;20002;-75
2022/05/26 15:56:02;;;;;;;6.55;1.42;;;;;;;;;;7371702;19;20047;-75
2022/05/26 15:58:27;;;;;;;8.65;2.00;;;;;;;;;;7372030;19;20006;-77
2022/05/26 16:00:54;;;;;;;7.63;1.33;;;;;;;;;;7374446;19;20102;-76
2022/05/26 16:03:20;;;;;;;6.07;1.40;;;;;;;;;;7380923;19;20014;-75
2022/05/26 16:05:45;;;;;;;7.05;1.48;;;;;;;;;;7375795;19;20011;-75
2022/05/26 16:08:11;;;;;;;7.70;1.73;;;;;;;;;;7369552;19;20006;-75
2022/05/26 16:10:36;;;;;;;8.52;1.52;;;;;;;;;;7374859;19;20006;-76
2022/05/26 16:13:01;;;;;;;7.53;2.10;;;;;;;;;;7374693;19;20467;-75
2022/05/26 16:15:27;;;;;;;9.35;2.08;;;;;;;;;;7369628;19;20010;-75
2022/05/26 16:17:52;;;;;;;7.70;1.45;;;;;;;;;;7383127;19;20036;-75
2022/05/26 16:20:18;;;;;;;7.07;1.90;;;;;;;;;;7373227;19;20462;-75
2022/05/26 16:22:44;;;;;;;8.40;2.45;;;;;;;;;;7382422;19;20006;-76
2022/05/26 16:25:10;;;;;;;5.53;1.58;;;;;;;;;;7380269;19;20010;-74
2022/05/26 16:27:35;;;;;;;9.15;1.73;;;;;;;;;;7386351;19;20002;-75
2022/05/26 16:30:00;;;;;;;7.50;1.60;;;;;;;;;;7383965;19;20010;-74
2022/05/26 16:32:27;;;;;;;8.85;1.80;;;;;;;;;;7381760;19;20022;-76
2022/05/26 16:37:36;;;;;;;;;;;;;;;;;;7378822;19;20015;-73
2022/05/26 16:40:03;;;;;;;6.13;1.63;;;;;;;;;;7375208;19;19919;-74
2022/05/26 16:42:28;;;;;;;8.75;2.03;;;;;;;;;;7386755;19;20027;-74
2022/05/26 16:44:53;;;;;;;9.07;1.60;;;;;;;;;;7381858;19;20466;-75
2022/05/26 16:47:18;;;;;;;7.13;1.20;;;;;;;;;;7368323;19;20433;-74
2022/05/26 16:49:47;;;;;;;8.03;1.50;;;;;;;;;;7383601;19;20250;-74
2022/05/26 16:52:13;;;;;;;5.70;1.63;;;;;;;;;;7374087;19;20263;-75
2022/05/26 16:54:40;;;;;;;7.75;1.70;;;;;;;;;;7384047;19;20011;-76
2022/05/26 16:57:05;;;;;;;8.65;1.77;;;;;;;;;;7378827;19;20022;-75
2022/05/26 16:59:30;;;;;;;6.72;1.77;;;;;;;;;;7377962;19;19998;-75
2022/05/26 17:01:56;;;;;;;10.43;2.07;;;;;;;;;;7376750;19;20010;-74
2022/05/26 17:04:21;;;;;;;8.70;1.65;;;;;;;;;;7377345;19;20310;-76
2022/05/26 17:06:47;;;;;;;9.67;2.33;;;;;;;;;;7359763;19;20401;-75
2022/05/26 17:09:14;;;;;;;8.40;1.90;;;;;;;;;;7373505;19;20255;-75
2022/05/26 17:11:39;;;;;;;12.25;2.05;;;;;;;;;;7373889;19;20018;-76
2022/05/26 17:22:16;;;;;;;6.10;1.42;;;;;;;;;;7374287;19;19941;-77
2022/05/26 17:24:42;;;;;;;8.98;2.13;;;;;;;;;;7369554;19;20074;-77
2022/05/26 17:27:13;;;;;;;8.05;1.65;;;;;;;;;;7371154;19;20585;-75
2022/05/26 17:29:38;;;;;;;7.50;1.38;;;;;;;;;;7347049;19;20119;-76
2022/05/26 17:32:04;;;;;;;6.68;2.00;;;;;;;;;;7372539;19;20521;-76
2022/05/26 17:34:30;;;;;;;8.32;1.83;;;;;;;;;;7376018;19;20571;-76
2022/05/26 17:36:55;;;;;;;10.38;1.73;;;;;;;;;;7383083;19;20074;-76
2022/05/26 17:39:22;;;;;;;11.02;1.67;;;;;;;;;;7374066;19;20046;-76
2022/05/26 17:41:49;;;;;;;7.30;2.03;;;;;;;;;;7375495;19;20508;-76
2022/05/26 17:44:15;;;;;;;11.30;2.10;;;;;;;;;;7379136;19;20010;-77
2022/05/26 17:46:41;;;;;;;6.25;1.75;;;;;;;;;;7376902;19;20031;-76
2022/05/26 17:49:09;;;;;;;12.43;1.88;;;;;;;;;;7375059;19;20029;-76
2022/05/26 17:51:35;;;;;;;7.28;1.70;;;;;;;;;;7376896;19;20014;-75
2022/05/26 17:54:00;;;;;;;7.72;1.70;;;;;;;;;;7371740;19;20024;-75
2022/05/26 17:56:25;;;;;;;9.83;1.57;;;;;;;;;;7380020;19;20014;-75
2022/05/26 17:58:50;;;;;;;6.20;1.38;;;;;;;;;;7378763;19;20345;-76
2022/05/26 18:01:20;;;;;;;6.97;1.42;;;;;;;;;;7368823;19;20399;-76
2022/05/26 18:03:45;;;;;;;7.55;1.60;;;;;;;;;;7371873;19;20119;-76
2022/05/26 18:06:11;;;;;;;10.67;1.80;;;;;;;;;;7375863;19;20025;-75
2022/05/26 18:08:37;;;;;;;8.55;1.70;;;;;;;;;;7366341;19;20782;-75
2022/05/26 18:11:03;;;;;;;9.43;1.75;;;;;;;;;;7377042;19;20110;-76
2022/05/26 18:13:28;;;;;;;10.48;1.58;;;;;;;;;;7376819;19;20006;-75
2022/05/26 18:15:54;;;;;;;8.17;1.70;;;;;;;;;;7368919;19;20017;-75
2022/05/26 18:18:20;;;;;;;7.50;1.35;;;;;;;;;;7370389;19;20319;-76
2022/05/26 18:20:46;;;;;;;7.20;1.60;;;;;;;;;;7375678;19;20011;-75
2022/05/26 18:23:16;;;;;;;9.60;2.75;;;;;;;;;;7368520;19;20303;-75
2022/05/26 18:25:41;;;;;;;13.25;1.80;;;;;;;;;;7375173;19;20599;-76
2022/05/26 18:28:06;;;;;;;7.43;1.60;;;;;;;;;;7374578;19;20478;-76
2022/05/26 18:30:33;;;;;;;7.87;1.63;;;;;;;;;;7371668;19;20014;-75
2022/05/26 18:33:00;;;;;;;6.28;1.50;;;;;;;;;;7376894;19;20015;-76
2022/05/26 18:35:26;;;;;;;7.88;1.70;;;;;;;;;;7378401;19;20015;-75
2022/05/26 18:37:51;;;;;;;5.03;1.38;;;;;;;;;;7378201;19;20014;-75
2022/05/26 18:40:19;;;;;;;6.97;1.90;;;;;;;;;;7366836;19;20327;-76
2022/05/26 18:42:45;;;;;;;6.95;1.67;;;;;;;;;;7381833;19;20014;-75
2022/05/26 18:45:10;;;;;;;7.40;1.60;;;;;;;;;;7369881;19;20399;-75
2022/05/26 18:47:39;;;;;;;9.18;1.60;;;;;;;;;;7376184;19;19999;-76
2022/05/26 18:50:05;;;;;;;7.85;2.00;;;;;;;;;;7376873;19;20025;-75
2022/05/26 18:52:30;;;;;;;8.55;1.73;;;;;;;;;;7375038;19;20220;-75
2022/05/26 18:54:55;;;;;;;13.38;2.05;;;;;;;;;;7371597;19;20045;-75
2022/05/26 18:57:22;;;;;;;5.68;1.80;;;;;;;;;;7372928;19;20010;-77
2022/05/26 18:59:47;;;;;;;7.13;1.70;;;;;;;;;;7368102;19;20007;-76
2022/05/26 19:02:18;;;;;;;9.63;1.67;;;;;;;;;;7372489;19;20371;-76
2022/05/26 19:04:43;;;;;;;9.27;2.13;;;;;;;;;;7375098;19;20017;-75
2022/05/26 19:07:09;;;;;;;7.90;1.40;;;;;;;;;;7378517;19;20002;-76
2022/05/26 19:09:35;;;;;;;8.30;1.57;;;;;;;;;;7368072;19;20010;-75
2022/05/26 19:12:00;;;;;;;8.73;1.90;;;;;;;;;;7375587;19;20387;-76
2022/05/26 19:14:28;;;;;;;5.72;1.67;;;;;;;;;;7378190;19;20414;-76
2022/05/26 19:16:55;;;;;;;7.68;1.40;;;;;;;;;;7370330;19;20014;-77
2022/05/26 19:19:20;;;;;;;7.32;1.60;;;;;;;;;;7377221;19;20002;-76
2022/05/26 19:21:45;;;;;;;7.68;1.75;;;;;;;;;;7372959;19;20021;-76
2022/05/26 19:24:13;;;;;;;11.13;2.00;;;;;;;;;;7371035;19;20603;-75
2022/05/26 19:26:39;;;;;;;10.45;2.88;;;;;;;;;;7377308;19;20713;-76
2022/05/26 19:29:05;;;;;;;11.50;1.70;;;;;;;;;;7376169;19;20014;-76
2022/05/26 19:31:31;;;;;;;10.13;1.70;;;;;;;;;;7368175;19;20006;-75
2022/05/26 19:33:58;;;;;;;6.43;1.70;;;;;;;;;;7373874;19;20022;-78
2022/05/26 19:36:23;;;;;;;7.72;2.15;;;;;;;;;;7366209;19;20110;-76
2022/05/26 19:38:48;;;;;;;6.20;1.80;;;;;;;;;;7367164;19;20036;-78
2022/05/26 19:41:15;;;;;;;8.87;2.10;;;;;;;;;;7361432;19;20010;-76
2022/05/26 19:43:41;;;;;;;6.07;1.60;;;;;;;;;;7356580;19;20247;-77
2022/05/26 19:46:07;;;;;;;7.97;1.73;;;;;;;;;;7369127;19;20032;-76
2022/05/26 19:48:33;;;;;;;8.10;1.85;;;;;;;;;;7372518;19;20477;-77
2022/05/26 19:50:58;;;;;;;8.13;1.48;;;;;;;;;;7374549;19;20035;-76
2022/05/26 19:53:27;;;;;;;7.10;1.90;;;;;;;;;;7372011;19;20070;-76
2022/05/26 19:55:52;;;;;;;7.90;1.65;;;;;;;;;;7367758;19;20027;-77
2022/05/26 19:58:19;;;;;;;7.53;1.70;;;;;;;;;;7370591;19;20006;-76
2022/05/26 20:00:45;;;;;;;7.75;1.77;;;;;;;;;;7361653;19;20015;-77
2022/05/26 20:03:11;;;;;;;5.03;1.48;;;;;;;;;;7370587;19;20018;-75
2022/05/26 20:05:37;;;;;;;6.18;1.58;;;;;;;;;;7371709;19;20002;-75
2022/05/26 20:08:03;;;;;;;8.55;1.83;;;;;;;;;;7368486;19;19999;-75
2022/05/26 20:10:29;;;;;;;10.25;2.20;;;;;;;;;;7369369;19;20499;-76
2022/05/26 20:12:54;;;;;;;5.90;1.67;;;;;;;;;;7372336;19;20051;-75
2022/05/26 20:15:20;;;;;;;7.38;2.30;;;;;;;;;;7368601;19;20568;-75
2022/05/26 20:17:45;;;;;;;10.45;2.00;;;;;;;;;;7374642;19;20578;-75
2022/05/26 20:20:12;;;;;;;9.32;1.98;;;;;;;;;;7372680;19;20490;-75
2022/05/26 20:22:37;;;;;;;7.25;1.80;;;;;;;;;;7379308;19;20034;-76
2022/05/26 20:25:03;;;;;;;9.25;1.80;;;;;;;;;;7372292;19;20417;-75
2022/05/26 20:27:30;;;;;;;9.75;1.92;;;;;;;;;;7376573;19;20957;-74
2022/05/26 20:29:55;;;;;;;10.32;2.28;;;;;;;;;;7378303;19;20008;-76
2022/05/26 20:32:20;;;;;;;6.70;1.60;;;;;;;;;;7373588;19;20003;-75
2022/05/26 20:34:46;;;;;;;9.07;2.17;;;;;;;;;;7375523;19;20500;-76
2022/05/26 20:37:12;;;;;;;9.33;1.93;;;;;;;;;;7376463;19;20011;-75
2022/05/26 20:39:41;;;;;;;6.97;1.73;;;;;;;;;;7366086;19;21072;-75
2022/05/26 20:42:08;;;;;;;7.13;2.30;;;;;;;;;;7373416;19;20045;-76
2022/05/26 20:44:35;;;;;;;6.03;2.15;;;;;;;;;;7376943;19;20430;-76
2022/05/26 20:47:02;;;;;;;5.55;1.80;;;;;;;;;;7375710;19;20066;-75
2022/05/26 20:49:38;;;;;;;10.13;2.65;;;;;;;;;;7375109;19;20090;-76
2022/05/26 20:52:05;;;;;;;6.50;1.73;;;;;;;;;;7377240;19;20009;-75
2022/05/26 20:54:31;;;;;;;7.30;2.00;;;;;;;;;;7376114;19;20034;-75
2022/05/26 20:56:56;;;;;;;9.53;2.40;;;;;;;;;;7364053;19;20363;-75
2022/05/26 20:59:21;;;;;;;5.20;1.90;;;;;;;;;;7369952;19;20295;-74
2022/05/26 21:01:47;;;;;;;8.55;2.50;;;;;;;;;;7357787;19;20501;-75
2022/05/26 21:04:12;;;;;;;9.77;2.47;;;;;;;;;;7375715;19;20030;-74
2022/05/26 21:06:37;;;;;;;13.73;2.75;;;;;;;;;;7381511;19;20026;-75
2022/05/26 21:09:03;;;;;;;6.80;2.00;;;;;;;;;;7380820;19;20022;-75
2022/05/26 21:11:28;;;;;;;8.65;2.42;;;;;;;;;;7375268;19;20339;-75
2022/05/26 21:13:53;;;;;;;7.20;2.42;;;;;;;;;;7382597;19;20029;-76
2022/05/26 21:16:19;;;;;;;11.67;2.20;;;;;;;;;;7378478;19;20026;-75
2022/05/26 21:18:44;;;;;;;11.73;2.57;;;;;;;;;;7376946;19;20011;-77
2022/05/26 21:21:12;;;;;;;8.95;2.35;;;;;;;;;;7381088;19;20010;-75
2022/05/26 21:23:37;;;;;;;7.28;1.92;;;;;;;;;;7380522;19;20037;-76
2022/05/26 21:26:02;;;;;;;12.17;2.70;;;;;;;;;;7381904;19;20014;-77
2022/05/26 21:28:28;;;;;;;9.00;2.40;;;;;;;;;;7380053;19;20022;-76
2022/05/26 21:31:01;;;;;;;8.45;2.10;;;;;;;;;;7380212;19;20306;-76
2022/05/26 21:33:27;;;;;;;7.90;2.05;;;;;;;;;;7382313;19;20007;-76
2022/05/26 21:35:54;;;;;;;7.32;1.90;;;;;;;;;;7384954;19;20026;-76
2022/05/26 21:38:19;;;;;;;5.82;1.92;;;;;;;;;;7374789;19;20006;-77
2022/05/26 21:40:44;;;;;;;9.87;2.30;;;;;;;;;;7364376;19;20590;-76
2022/05/26 21:43:14;;;;;;;9.93;2.63;;;;;;;;;;7367106;19;20428;-76
2022/05/26 21:45:39;;;;;;;12.73;2.30;;;;;;;;;;7371980;19;20025;-76
2022/05/26 21:48:05;;;;;;;11.73;2.90;;;;;;;;;;7380919;19;20868;-76
2022/05/26 21:50:30;;;;;;;5.75;2.35;;;;;;;;;;7379478;19;20275;-76
2022/05/26 21:52:55;;;;;;;8.57;2.35;;;;;;;;;;7378692;19;20042;-76
2022/05/26 21:55:20;;;;;;;10.63;2.75;;;;;;;;;;7383633;19;20003;-76
2022/05/26 21:57:47;;;;;;;9.60;2.70;;;;;;;;;;7378679;19;20457;-76
2022/05/26 22:02:43;;;;;;;8.10;2.17;;;;;;;;;;7320823;19;20010;-75
2022/05/26 22:10:41;;;;;;;10.98;2.58;;;;;;;;;;7371696;19;20048;-75
2022/05/26 22:13:09;;;;;;;9.85;2.40;;;;;;;;;;7371230;19;20006;-75
2022/05/26 22:15:34;;;;;;;9.52;2.60;;;;;;;;;;7371561;19;20010;-74
2022/05/26 22:17:59;;;;;;;10.60;2.50;;;;;;;;;;7371894;19;20005;-75
2022/05/26 22:20:25;;;;;;;6.10;2.10;;;;;;;;;;7381801;19;20093;-74
2022/05/26 22:22:50;;;;;;;10.13;2.90;;;;;;;;;;7381805;19;20014;-74
2022/05/26 22:25:16;;;;;;;11.98;2.67;;;;;;;;;;7379668;19;20010;-74
2022/05/26 22:27:43;;;;;;;8.70;2.50;;;;;;;;;;7373330;19;20701;-74
2022/05/26 22:30:16;;;;;;;9.43;2.70;;;;;;;;;;7369824;19;20002;-74
2022/05/26 22:32:43;;;;;;;9.93;2.88;;;;;;;;;;7345018;19;20378;-75
2022/05/26 22:35:21;;;;;;;9.82;3.35;;;;;;;;;;7367411;19;20074;-76
2022/05/26 22:37:50;;;;;;;10.07;2.97;;;;;;;;;;7372642;19;20019;-76
2022/05/26 22:40:16;;;;;;;9.65;2.60;;;;;;;;;;7379240;19;20020;-76
2022/05/26 22:42:43;;;;;;;11.85;3.10;;;;;;;;;;7378298;19;19998;-76
2022/05/26 22:45:11;;;;;;;12.77;3.28;;;;;;;;;;7373532;19;20033;-76
2022/05/26 22:47:37;;;;;;;10.02;2.97;;;;;;;;;;7379151;19;19990;-75
2022/05/26 22:50:02;;;;;;;8.60;2.70;;;;;;;;;;7379764;19;20007;-76
2022/05/26 22:52:27;;;;;;;8.05;2.67;;;;;;;;;;7381842;19;20469;-76
2022/05/26 22:54:53;;;;;;;9.50;3.23;;;;;;;;;;7344212;19;20003;-76
2022/05/26 22:57:21;;;;;;;7.40;2.50;;;;;;;;;;7371043;19;20259;-76
2022/05/26 22:59:46;;;;;;;12.98;2.92;;;;;;;;;;7354037;19;20121;-77
2022/05/26 23:02:11;;;;;;;11.98;3.72;;;;;;;;;;7358967;19;20522;-76
2022/05/26 23:04:36;;;;;;;7.70;3.00;;;;;;;;;;7366890;19;20022;-75
2022/05/26 23:07:01;;;;;;;8.68;2.03;;;;;;;;;;7364803;19;20292;-76
2022/05/26 23:09:27;;;;;;;11.63;2.92;;;;;;;;;;7367774;19;20014;-76
2022/05/26 23:11:52;;;;;;;7.63;2.67;;;;;;;;;;7373694;19;20493;-76
2022/05/26 23:14:17;;;;;;;10.88;2.42;;;;;;;;;;7371978;19;20247;-76
2022/05/26 23:16:43;;;;;;;7.17;2.33;;;;;;;;;;7370155;19;20358;-76
2022/05/26 23:19:10;;;;;;;9.17;2.20;;;;;;;;;;7371304;19;20594;-76
2022/05/26 23:21:35;;;;;;;9.25;2.72;;;;;;;;;;7377057;19;20104;-76
2022/05/26 23:24:00;;;;;;;9.13;2.80;;;;;;;;;;7372787;19;20018;-76
2022/05/26 23:26:25;;;;;;;5.45;2.78;;;;;;;;;;7371641;19;20789;-76
2022/05/26 23:28:51;;;;;;;8.40;2.33;;;;;;;;;;7372384;19;20337;-76
2022/05/26 23:31:16;;;;;;;6.90;2.10;;;;;;;;;;7371035;19;20266;-76
2022/05/26 23:33:41;;;;;;;9.55;2.80;;;;;;;;;;7372467;19;20247;-76
2022/05/26 23:36:06;;;;;;;7.50;2.35;;;;;;;;;;7375329;19;20010;-76
2022/05/26 23:38:31;;;;;;;9.52;2.58;;;;;;;;;;7358117;19;20017;-76
2022/05/26 23:43:41;;;;;;;;;;;;;;;;;;7377067;19;20725;-76
2022/05/26 23:46:06;;;;;;;9.35;2.63;;;;;;;;;;7374469;19;20335;-76
2022/05/26 23:48:31;;;;;;;7.00;2.20;;;;;;;;;;7374573;19;20475;-76
2022/05/26 23:50:57;;;;;;;10.25;2.65;;;;;;;;;;7377865;19;20006;-76
2022/05/26 23:53:23;;;;;;;10.65;2.70;;;;;;;;;;7378926;19;20013;-76
2022/05/26 23:58:43;;;;;;;7.15;2.67;;;;;;;;;;7371883;19;20017;-76
